sensor_id;sensor_type;location;lat;lon;timestamp;pressure;altitude;pressure_sealevel;temperature;humidity
62510;BME280;48558;48.242;11.654;2022-11-04T00:02:32;95259.66;;;11.49;100.00
62510;BME280;48558;48.242;11.654;2022-11-04T00:06:45;95276.53;;;11.51;100.00
62510;BME280;48558;48.242;11.654;2022-11-04T00:10:59;95283.06;;;11.54;100.00
62510;BME280;48558;48.242;11.654;2022-11-04T00:15:35;95292.66;;;11.53;100.00
62510;BME280;48558;48.242;11.654;2022-11-04T00:20:07;95298.28;;;11.70;100.00
62510;BME280;48558;48.242;11.654;2022-11-04T00:24:38;95307.09;;;11.68;100.00
62510;BME280;48558;48.242;11.654;2022-11-04T00:28:53;95317.19;;;11.71;100.00
62510;BME280;48558;48.242;11.654;2022-11-04T00:33:05;95311.94;;;11.79;100.00
62510;BME280;48558;48.242;11.654;2022-11-04T00:37:41;95306.84;;;11.72;100.00
62510;BME280;48558;48.242;11.654;2022-11-04T00:41:53;95320.38;;;11.64;100.00
62510;BME280;48558;48.242;11.654;2022-11-04T00:46:06;95329.16;;;11.63;100.00
62510;BME280;48558;48.242;11.654;2022-11-04T00:50:18;95342.19;;;11.57;100.00
62510;BME280;48558;48.242;11.654;2022-11-04T00:54:30;95335.38;;;11.52;100.00
62510;BME280;48558;48.242;11.654;2022-11-04T00:58:42;95347.16;;;11.47;100.00
62510;BME280;48558;48.242;11.654;2022-11-04T01:02:55;95355.97;;;11.45;100.00
62510;BME280;48558;48.242;11.654;2022-11-04T01:07:08;95363.22;;;11.43;100.00
62510;BME280;48558;48.242;11.654;2022-11-04T01:11:20;95380.59;;;11.43;100.00
62510;BME280;48558;48.242;11.654;2022-11-04T01:15:32;95373.41;;;11.26;100.00
62510;BME280;48558;48.242;11.654;2022-11-04T01:19:45;95391.03;;;11.03;100.00
62510;BME280;48558;48.242;11.654;2022-11-04T01:23:58;95402.94;;;10.89;100.00
62510;BME280;48558;48.242;11.654;2022-11-04T01:28:11;95393.34;;;10.64;100.00
62510;BME280;48558;48.242;11.654;2022-11-04T01:32:24;95398.94;;;10.49;100.00
62510;BME280;48558;48.242;11.654;2022-11-04T01:36:36;95399.16;;;10.46;100.00
62510;BME280;48558;48.242;11.654;2022-11-04T01:40:48;95384.88;;;10.27;100.00
62510;BME280;48558;48.242;11.654;2022-11-04T01:45:01;95388.34;;;10.22;100.00
62510;BME280;48558;48.242;11.654;2022-11-04T01:49:29;95391.88;;;10.08;100.00
62510;BME280;48558;48.242;11.654;2022-11-04T01:53:42;95379.13;;;10.10;100.00
62510;BME280;48558;48.242;11.654;2022-11-04T01:58:08;95365.63;;;10.13;100.00
62510;BME280;48558;48.242;11.654;2022-11-04T02:02:21;95362.75;;;10.07;100.00
62510;BME280;48558;48.242;11.654;2022-11-04T02:06:34;95351.44;;;10.05;100.00
62510;BME280;48558;48.242;11.654;2022-11-04T02:10:54;95372.13;;;9.95;100.00
62510;BME280;48558;48.242;11.654;2022-11-04T02:15:09;95360.88;;;9.98;100.00
62510;BME280;48558;48.242;11.654;2022-11-04T02:23:55;95371.00;;;9.87;100.00
62510;BME280;48558;48.242;11.654;2022-11-04T02:33:16;95371.56;;;9.91;100.00
62510;BME280;48558;48.242;11.654;2022-11-04T02:46:50;95389.38;;;9.90;100.00
62510;BME280;48558;48.242;11.654;2022-11-04T02:51:15;95383.97;;;9.81;100.00
62510;BME280;48558;48.242;11.654;2022-11-04T02:55:46;95381.38;;;9.77;100.00
62510;BME280;48558;48.242;11.654;2022-11-04T03:04:19;95374.09;;;9.74;100.00
62510;BME280;48558;48.242;11.654;2022-11-04T03:08:36;95365.81;;;9.74;100.00
62510;BME280;48558;48.242;11.654;2022-11-04T03:12:56;95363.25;;;9.71;100.00
62510;BME280;48558;48.242;11.654;2022-11-04T03:17:19;95365.53;;;9.72;100.00
62510;BME280;48558;48.242;11.654;2022-11-04T03:21:38;95355.47;;;9.69;100.00
62510;BME280;48558;48.242;11.654;2022-11-04T03:25:57;95357.66;;;9.65;100.00
62510;BME280;48558;48.242;11.654;2022-11-04T03:30:18;95367.16;;;9.64;100.00
62510;BME280;48558;48.242;11.654;2022-11-04T03:34:31;95375.72;;;9.66;100.00
62510;BME280;48558;48.242;11.654;2022-11-04T03:38:44;95372.84;;;9.75;100.00
62510;BME280;48558;48.242;11.654;2022-11-04T03:42:58;95363.63;;;9.78;100.00
62510;BME280;48558;48.242;11.654;2022-11-04T03:47:11;95346.09;;;9.81;100.00
62510;BME280;48558;48.242;11.654;2022-11-04T03:51:23;95355.94;;;9.68;100.00
62510;BME280;48558;48.242;11.654;2022-11-04T04:00:10;95367.53;;;9.72;100.00
62510;BME280;48558;48.242;11.654;2022-11-04T04:08:47;95360.22;;;9.69;100.00
62510;BME280;48558;48.242;11.654;2022-11-04T04:13:04;95349.72;;;9.73;100.00
62510;BME280;48558;48.242;11.654;2022-11-04T04:21:41;95343.81;;;9.80;100.00
62510;BME280;48558;48.242;11.654;2022-11-04T04:25:58;95349.94;;;9.69;100.00
62510;BME280;48558;48.242;11.654;2022-11-04T04:30:39;95354.53;;;9.58;100.00
62510;BME280;48558;48.242;11.654;2022-11-04T04:34:53;95370.59;;;9.59;100.00
62510;BME280;48558;48.242;11.654;2022-11-04T04:39:34;95355.25;;;9.73;100.00
62510;BME280;48558;48.242;11.654;2022-11-04T04:44:18;95342.47;;;9.55;100.00
62510;BME280;48558;48.242;11.654;2022-11-04T04:48:51;95328.94;;;9.57;100.00
62510;BME280;48558;48.242;11.654;2022-11-04T04:53:03;95343.59;;;9.63;100.00
62510;BME280;48558;48.242;11.654;2022-11-04T04:57:16;95377.91;;;9.62;100.00
62510;BME280;48558;48.242;11.654;2022-11-04T05:01:28;95371.72;;;9.67;100.00
62510;BME280;48558;48.242;11.654;2022-11-04T05:05:41;95378.75;;;9.68;100.00
62510;BME280;48558;48.242;11.654;2022-11-04T05:09:53;95369.44;;;9.66;100.00
62510;BME280;48558;48.242;11.654;2022-11-04T05:14:05;95356.13;;;9.64;100.00
62510;BME280;48558;48.242;11.654;2022-11-04T05:18:18;95369.66;;;9.62;100.00
62510;BME280;48558;48.242;11.654;2022-11-04T05:22:30;95378.75;;;9.68;100.00
62510;BME280;48558;48.242;11.654;2022-11-04T05:26:43;95366.88;;;9.62;100.00
62510;BME280;48558;48.242;11.654;2022-11-04T05:30:55;95352.81;;;9.60;100.00
62510;BME280;48558;48.242;11.654;2022-11-04T05:35:07;95364.44;;;9.50;100.00
62510;BME280;48558;48.242;11.654;2022-11-04T05:39:20;95348.28;;;9.43;100.00
62510;BME280;48558;48.242;11.654;2022-11-04T05:43:33;95363.50;;;9.23;100.00
62510;BME280;48558;48.242;11.654;2022-11-04T05:47:45;95377.41;;;9.29;100.00
62510;BME280;48558;48.242;11.654;2022-11-04T05:51:58;95377.13;;;9.27;100.00
62510;BME280;48558;48.242;11.654;2022-11-04T05:56:10;95380.34;;;9.25;100.00
62510;BME280;48558;48.242;11.654;2022-11-04T06:00:27;95374.16;;;9.16;100.00
62510;BME280;48558;48.242;11.654;2022-11-04T06:04:40;95378.53;;;9.08;100.00
62510;BME280;48558;48.242;11.654;2022-11-04T06:08:52;95384.81;;;9.08;100.00
62510;BME280;48558;48.242;11.654;2022-11-04T06:13:04;95402.28;;;9.05;100.00
62510;BME280;48558;48.242;11.654;2022-11-04T06:17:19;95390.09;;;8.83;100.00
62510;BME280;48558;48.242;11.654;2022-11-04T06:21:32;95419.44;;;8.71;100.00
62510;BME280;48558;48.242;11.654;2022-11-04T06:25:54;95419.44;;;8.71;100.00
62510;BME280;48558;48.242;11.654;2022-11-04T06:30:10;95434.69;;;8.57;100.00
62510;BME280;48558;48.242;11.654;2022-11-04T06:34:22;95431.06;;;8.51;100.00
62510;BME280;48558;48.242;11.654;2022-11-04T06:38:35;95428.66;;;8.44;100.00
62510;BME280;48558;48.242;11.654;2022-11-04T06:42:50;95427.09;;;8.52;100.00
62510;BME280;48558;48.242;11.654;2022-11-04T06:47:03;95424.75;;;8.36;100.00
62510;BME280;48558;48.242;11.654;2022-11-04T06:51:15;95427.22;;;8.34;100.00
62510;BME280;48558;48.242;11.654;2022-11-04T06:55:28;95424.97;;;8.47;100.00
62510;BME280;48558;48.242;11.654;2022-11-04T06:59:40;95430.78;;;8.49;100.00
62510;BME280;48558;48.242;11.654;2022-11-04T07:03:56;95398.03;;;8.51;100.00
62510;BME280;48558;48.242;11.654;2022-11-04T07:08:17;95392.22;;;8.49;100.00
62510;BME280;48558;48.242;11.654;2022-11-04T07:12:29;95387.31;;;8.53;100.00
62510;BME280;48558;48.242;11.654;2022-11-04T07:16:42;95396.56;;;8.80;100.00
62510;BME280;48558;48.242;11.654;2022-11-04T07:20:57;95410.03;;;8.78;100.00
62510;BME280;48558;48.242;11.654;2022-11-04T07:25:09;95424.28;;;8.76;100.00
62510;BME280;48558;48.242;11.654;2022-11-04T07:29:22;95435.63;;;8.54;100.00
62510;BME280;48558;48.242;11.654;2022-11-04T07:33:36;95438.84;;;8.53;100.00
62510;BME280;48558;48.242;11.654;2022-11-04T07:37:48;95444.34;;;8.53;100.00
62510;BME280;48558;48.242;11.654;2022-11-04T07:42:01;95458.03;;;8.47;100.00
62510;BME280;48558;48.242;11.654;2022-11-04T07:46:13;95474.63;;;8.53;100.00
62510;BME280;48558;48.242;11.654;2022-11-04T07:50:27;95453.22;;;8.57;100.00
62510;BME280;48558;48.242;11.654;2022-11-04T07:54:39;95458.31;;;8.49;100.00
62510;BME280;48558;48.242;11.654;2022-11-04T07:58:52;95477.59;;;8.49;100.00
62510;BME280;48558;48.242;11.654;2022-11-04T08:03:04;95481.03;;;8.35;100.00
62510;BME280;48558;48.242;11.654;2022-11-04T08:07:23;95479.81;;;8.36;100.00
62510;BME280;48558;48.242;11.654;2022-11-04T08:11:35;95461.81;;;8.50;100.00
62510;BME280;48558;48.242;11.654;2022-11-04T08:15:48;95445.53;;;8.61;100.00
62510;BME280;48558;48.242;11.654;2022-11-04T08:20:00;95446.22;;;8.71;100.00
62510;BME280;48558;48.242;11.654;2022-11-04T08:24:13;95430.06;;;8.63;100.00
62510;BME280;48558;48.242;11.654;2022-11-04T08:28:26;95430.00;;;8.73;100.00
62510;BME280;48558;48.242;11.654;2022-11-04T08:32:38;95416.78;;;8.77;100.00
62510;BME280;48558;48.242;11.654;2022-11-04T08:36:53;95408.44;;;8.86;100.00
62510;BME280;48558;48.242;11.654;2022-11-04T08:41:09;95420.25;;;9.01;100.00
62510;BME280;48558;48.242;11.654;2022-11-04T08:45:22;95420.91;;;8.96;100.00
62510;BME280;48558;48.242;11.654;2022-11-04T08:49:38;95419.78;;;9.02;100.00
62510;BME280;48558;48.242;11.654;2022-11-04T08:53:51;95413.41;;;8.96;100.00
62510;BME280;48558;48.242;11.654;2022-11-04T08:58:03;95379.69;;;9.01;100.00
62510;BME280;48558;48.242;11.654;2022-11-04T09:02:16;95393.38;;;9.10;100.00
62510;BME280;48558;48.242;11.654;2022-11-04T09:06:33;95392.69;;;9.30;100.00
62510;BME280;48558;48.242;11.654;2022-11-04T09:10:47;95400.78;;;9.33;100.00
62510;BME280;48558;48.242;11.654;2022-11-04T09:14:59;95385.47;;;9.47;100.00
62510;BME280;48558;48.242;11.654;2022-11-04T09:19:11;95377.97;;;9.33;100.00
62510;BME280;48558;48.242;11.654;2022-11-04T09:23:24;95370.34;;;9.43;100.00
62510;BME280;48558;48.242;11.654;2022-11-04T09:27:36;95379.94;;;9.32;100.00
62510;BME280;48558;48.242;11.654;2022-11-04T09:31:48;95379.19;;;9.03;100.00
62510;BME280;48558;48.242;11.654;2022-11-04T09:36:01;95364.69;;;9.02;100.00
62510;BME280;48558;48.242;11.654;2022-11-04T09:40:16;95378.34;;;8.97;100.00
62510;BME280;48558;48.242;11.654;2022-11-04T09:49:16;95401.59;;;8.96;100.00
62510;BME280;48558;48.242;11.654;2022-11-04T09:57:40;95388.44;;;9.00;100.00
62510;BME280;48558;48.242;11.654;2022-11-04T10:02:07;95393.16;;;9.14;100.00
62510;BME280;48558;48.242;11.654;2022-11-04T10:11:54;95383.81;;;9.55;100.00
62510;BME280;48558;48.242;11.654;2022-11-04T10:21:04;95374.66;;;10.13;100.00
62510;BME280;48558;48.242;11.654;2022-11-04T10:25:22;95381.13;;;9.75;100.00
62510;BME280;48558;48.242;11.654;2022-11-04T10:29:41;95387.41;;;9.61;100.00
62510;BME280;48558;48.242;11.654;2022-11-04T10:33:59;95366.06;;;9.56;100.00
62510;BME280;48558;48.242;11.654;2022-11-04T10:42:49;95346.69;;;10.05;100.00
62510;BME280;48558;48.242;11.654;2022-11-04T10:47:25;95331.69;;;9.92;100.00
62510;BME280;48558;48.242;11.654;2022-11-04T10:51:44;95328.97;;;9.77;100.00
62510;BME280;48558;48.242;11.654;2022-11-04T10:56:15;95335.00;;;9.61;100.00
62510;BME280;48558;48.242;11.654;2022-11-04T11:00:35;95339.84;;;9.66;100.00
62510;BME280;48558;48.242;11.654;2022-11-04T11:09:28;95332.31;;;9.81;100.00
62510;BME280;48558;48.242;11.654;2022-11-04T11:13:51;95342.09;;;9.82;100.00
62510;BME280;48558;48.242;11.654;2022-11-04T11:22:32;95341.28;;;9.76;100.00
62510;BME280;48558;48.242;11.654;2022-11-04T11:26:45;95345.06;;;9.44;100.00
62510;BME280;48558;48.242;11.654;2022-11-04T11:31:01;95363.06;;;9.74;100.00
62510;BME280;48558;48.242;11.654;2022-11-04T11:35:17;95370.81;;;9.90;100.00
62510;BME280;48558;48.242;11.654;2022-11-04T11:39:31;95362.09;;;9.77;100.00
62510;BME280;48558;48.242;11.654;2022-11-04T11:43:50;95373.16;;;9.63;100.00
62510;BME280;48558;48.242;11.654;2022-11-04T11:48:27;95372.19;;;9.66;100.00
62510;BME280;48558;48.242;11.654;2022-11-04T11:52:42;95377.59;;;9.75;100.00
62510;BME280;48558;48.242;11.654;2022-11-04T11:56:56;95366.94;;;10.02;100.00
62510;BME280;48558;48.242;11.654;2022-11-04T12:01:39;95349.81;;;9.78;100.00
62510;BME280;48558;48.242;11.654;2022-11-04T12:24:27;95364.31;;;9.93;100.00
62510;BME280;48558;48.242;11.654;2022-11-04T12:29:13;95353.47;;;9.70;100.00
62510;BME280;48558;48.242;11.654;2022-11-04T12:47:18;95337.44;;;10.08;100.00
62510;BME280;48558;48.242;11.654;2022-11-04T12:52:04;95368.94;;;10.17;100.00
62510;BME280;48558;48.242;11.654;2022-11-04T12:56:30;95397.84;;;10.06;100.00
62510;BME280;48558;48.242;11.654;2022-11-04T13:00:55;95404.81;;;10.17;100.00
62510;BME280;48558;48.242;11.654;2022-11-04T13:05:36;95409.44;;;9.90;100.00
62510;BME280;48558;48.242;11.654;2022-11-04T13:09:55;95402.91;;;9.73;100.00
62510;BME280;48558;48.242;11.654;2022-11-04T13:14:30;95394.75;;;9.99;100.00
62510;BME280;48558;48.242;11.654;2022-11-04T13:18:44;95400.53;;;9.81;100.00
62510;BME280;48558;48.242;11.654;2022-11-04T13:23:03;95409.19;;;9.74;100.00
62510;BME280;48558;48.242;11.654;2022-11-04T13:27:31;95404.94;;;9.58;100.00
62510;BME280;48558;48.242;11.654;2022-11-04T13:45:32;95423.00;;;8.86;100.00
62510;BME280;48558;48.242;11.654;2022-11-04T13:49:49;95419.38;;;8.95;100.00
62510;BME280;48558;48.242;11.654;2022-11-04T13:54:02;95419.06;;;8.78;100.00
62510;BME280;48558;48.242;11.654;2022-11-04T13:58:23;95421.06;;;8.78;100.00
62510;BME280;48558;48.242;11.654;2022-11-04T14:02:54;95415.13;;;8.55;100.00
62510;BME280;48558;48.242;11.654;2022-11-04T14:07:13;95419.31;;;8.27;100.00
62510;BME280;48558;48.242;11.654;2022-11-04T14:11:28;95407.63;;;8.32;100.00
62510;BME280;48558;48.242;11.654;2022-11-04T14:15:57;95418.91;;;8.43;100.00
62510;BME280;48558;48.242;11.654;2022-11-04T14:20:22;95417.91;;;8.32;100.00
62510;BME280;48558;48.242;11.654;2022-11-04T14:24:34;95423.69;;;8.34;100.00
62510;BME280;48558;48.242;11.654;2022-11-04T14:29:00;95427.03;;;8.38;100.00
62510;BME280;48558;48.242;11.654;2022-11-04T14:33:34;95432.34;;;8.18;100.00
62510;BME280;48558;48.242;11.654;2022-11-04T14:37:51;95426.75;;;8.03;100.00
62510;BME280;48558;48.242;11.654;2022-11-04T14:42:12;95428.00;;;8.02;100.00
62510;BME280;48558;48.242;11.654;2022-11-04T14:46:27;95432.34;;;8.18;100.00
62510;BME280;48558;48.242;11.654;2022-11-04T14:50:42;95435.16;;;8.32;100.00
62510;BME280;48558;48.242;11.654;2022-11-04T14:55:02;95446.50;;;8.34;100.00
62510;BME280;48558;48.242;11.654;2022-11-04T14:59:22;95431.59;;;8.41;100.00
62510;BME280;48558;48.242;11.654;2022-11-04T15:03:36;95431.00;;;8.37;100.00
62510;BME280;48558;48.242;11.654;2022-11-04T15:08:35;95431.00;;;8.37;100.00
62510;BME280;48558;48.242;11.654;2022-11-04T15:12:48;95435.56;;;8.40;100.00
62510;BME280;48558;48.242;11.654;2022-11-04T15:17:03;95435.78;;;8.36;100.00
62510;BME280;48558;48.242;11.654;2022-11-04T15:21:15;95432.97;;;8.13;100.00
62510;BME280;48558;48.242;11.654;2022-11-04T15:25:28;95434.59;;;8.19;100.00
62510;BME280;48558;48.242;11.654;2022-11-04T15:29:55;95437.59;;;8.07;100.00
62510;BME280;48558;48.242;11.654;2022-11-04T15:34:10;95440.41;;;7.97;100.00
62510;BME280;48558;48.242;11.654;2022-11-04T15:38:26;95443.00;;;7.92;100.00
62510;BME280;48558;48.242;11.654;2022-11-04T15:42:42;95451.25;;;7.92;100.00
62510;BME280;48558;48.242;11.654;2022-11-04T15:47:00;95455.91;;;7.77;100.00
62510;BME280;48558;48.242;11.654;2022-11-04T15:51:22;95464.47;;;7.79;100.00
62510;BME280;48558;48.242;11.654;2022-11-04T15:55:36;95467.09;;;7.73;100.00
62510;BME280;48558;48.242;11.654;2022-11-04T16:00:06;95462.66;;;7.67;100.00
62510;BME280;48558;48.242;11.654;2022-11-04T16:04:21;95464.94;;;7.77;100.00
62510;BME280;48558;48.242;11.654;2022-11-04T16:08:34;95467.22;;;7.79;100.00
62510;BME280;48558;48.242;11.654;2022-11-04T16:12:54;95471.06;;;7.72;100.00
62510;BME280;48558;48.242;11.654;2022-11-04T16:17:09;95468.81;;;7.62;100.00
62510;BME280;48558;48.242;11.654;2022-11-04T16:25:44;95467.94;;;7.38;100.00
62510;BME280;48558;48.242;11.654;2022-11-04T16:30:11;95466.00;;;7.20;100.00
62510;BME280;48558;48.242;11.654;2022-11-04T16:34:27;95474.28;;;7.02;100.00
62510;BME280;48558;48.242;11.654;2022-11-04T16:38:43;95479.78;;;6.84;100.00
62510;BME280;48558;48.242;11.654;2022-11-04T16:42:56;95479.94;;;6.62;100.00
62510;BME280;48558;48.242;11.654;2022-11-04T16:47:09;95475.34;;;6.41;100.00
62510;BME280;48558;48.242;11.654;2022-11-04T16:51:22;95479.88;;;6.26;100.00
62510;BME280;48558;48.242;11.654;2022-11-04T16:55:38;95495.38;;;6.11;100.00
62510;BME280;48558;48.242;11.654;2022-11-04T16:59:51;95486.53;;;6.07;100.00
62510;BME280;48558;48.242;11.654;2022-11-04T17:04:05;95497.75;;;5.91;100.00
62510;BME280;48558;48.242;11.654;2022-11-04T17:08:18;95514.84;;;5.95;100.00
62510;BME280;48558;48.242;11.654;2022-11-04T17:12:30;95512.72;;;5.99;100.00
62510;BME280;48558;48.242;11.654;2022-11-04T17:16:48;95518.00;;;6.33;100.00
62510;BME280;48558;48.242;11.654;2022-11-04T17:21:04;95518.31;;;6.35;100.00
62510;BME280;48558;48.242;11.654;2022-11-04T17:25:27;95534.31;;;6.36;100.00
62510;BME280;48558;48.242;11.654;2022-11-04T17:29:40;95532.66;;;6.48;100.00
62510;BME280;48558;48.242;11.654;2022-11-04T17:33:53;95525.34;;;6.45;100.00
62510;BME280;48558;48.242;11.654;2022-11-04T17:38:05;95533.28;;;6.52;100.00
62510;BME280;48558;48.242;11.654;2022-11-04T17:42:17;95527.19;;;6.48;100.00
62510;BME280;48558;48.242;11.654;2022-11-04T17:46:48;95536.19;;;6.48;100.00
62510;BME280;48558;48.242;11.654;2022-11-04T17:51:06;95541.22;;;6.50;100.00
62510;BME280;48558;48.242;11.654;2022-11-04T17:55:18;95539.69;;;6.40;100.00
62510;BME280;48558;48.242;11.654;2022-11-04T17:59:37;95538.59;;;6.37;100.00
62510;BME280;48558;48.242;11.654;2022-11-04T18:03:51;95543.94;;;6.41;100.00
62510;BME280;48558;48.242;11.654;2022-11-04T18:08:04;95549.41;;;6.32;100.00
62510;BME280;48558;48.242;11.654;2022-11-04T18:12:17;95561.75;;;6.36;100.00
62510;BME280;48558;48.242;11.654;2022-11-04T18:16:48;95560.97;;;6.36;100.00
62510;BME280;48558;48.242;11.654;2022-11-04T18:21:03;95567.25;;;6.36;100.00
62510;BME280;48558;48.242;11.654;2022-11-04T18:25:15;95570.78;;;6.46;100.00
62510;BME280;48558;48.242;11.654;2022-11-04T18:29:28;95585.72;;;6.45;100.00
62510;BME280;48558;48.242;11.654;2022-11-04T18:33:40;95583.41;;;6.43;100.00
62510;BME280;48558;48.242;11.654;2022-11-04T18:37:53;95578.97;;;6.37;100.00
62510;BME280;48558;48.242;11.654;2022-11-04T18:42:06;95588.38;;;6.27;100.00
62510;BME280;48558;48.242;11.654;2022-11-04T18:46:18;95599.00;;;6.16;100.00
62510;BME280;48558;48.242;11.654;2022-11-04T18:50:31;95597.19;;;6.13;100.00
62510;BME280;48558;48.242;11.654;2022-11-04T18:54:43;95608.44;;;6.06;100.00
62510;BME280;48558;48.242;11.654;2022-11-04T18:58:55;95609.00;;;6.01;100.00
62510;BME280;48558;48.242;11.654;2022-11-04T19:03:08;95619.03;;;5.95;100.00
62510;BME280;48558;48.242;11.654;2022-11-04T19:07:21;95621.78;;;5.95;100.00
62510;BME280;48558;48.242;11.654;2022-11-04T19:11:37;95613.56;;;5.95;100.00
62510;BME280;48558;48.242;11.654;2022-11-04T19:15:50;95609.66;;;5.83;100.00
62510;BME280;48558;48.242;11.654;2022-11-04T19:20:13;95634.09;;;5.90;100.00
62510;BME280;48558;48.242;11.654;2022-11-04T19:24:26;95642.22;;;5.59;100.00
62510;BME280;48558;48.242;11.654;2022-11-04T19:28:40;95649.41;;;5.44;100.00
62510;BME280;48558;48.242;11.654;2022-11-04T19:32:59;95632.75;;;5.17;100.00
62510;BME280;48558;48.242;11.654;2022-11-04T19:37:12;95660.00;;;5.33;100.00
62510;BME280;48558;48.242;11.654;2022-11-04T19:41:24;95664.47;;;5.27;100.00
62510;BME280;48558;48.242;11.654;2022-11-04T19:45:59;95676.22;;;5.28;100.00
62510;BME280;48558;48.242;11.654;2022-11-04T19:50:15;95680.09;;;5.18;100.00
62510;BME280;48558;48.242;11.654;2022-11-04T19:54:27;95692.38;;;5.13;100.00
62510;BME280;48558;48.242;11.654;2022-11-04T19:58:41;95687.22;;;5.02;100.00
62510;BME280;48558;48.242;11.654;2022-11-04T20:02:54;95689.88;;;4.93;100.00
62510;BME280;48558;48.242;11.654;2022-11-04T20:07:06;95695.56;;;4.86;100.00
62510;BME280;48558;48.242;11.654;2022-11-04T20:11:19;95705.22;;;4.78;100.00
62510;BME280;48558;48.242;11.654;2022-11-04T20:15:31;95706.88;;;4.76;100.00
62510;BME280;48558;48.242;11.654;2022-11-04T20:19:44;95714.31;;;4.75;100.00
62510;BME280;48558;48.242;11.654;2022-11-04T20:23:58;95720.31;;;4.58;100.00
62510;BME280;48558;48.242;11.654;2022-11-04T20:28:11;95726.00;;;4.51;100.00
62510;BME280;48558;48.242;11.654;2022-11-04T20:32:23;95739.56;;;4.42;100.00
62510;BME280;48558;48.242;11.654;2022-11-04T20:36:37;95739.91;;;4.44;100.00
62510;BME280;48558;48.242;11.654;2022-11-04T20:40:49;95747.69;;;4.45;100.00
62510;BME280;48558;48.242;11.654;2022-11-04T20:45:02;95742.63;;;4.31;100.00
62510;BME280;48558;48.242;11.654;2022-11-04T20:49:15;95747.66;;;4.32;100.00
62510;BME280;48558;48.242;11.654;2022-11-04T20:53:28;95752.91;;;4.27;100.00
62510;BME280;48558;48.242;11.654;2022-11-04T20:57:40;95758.78;;;4.25;100.00
62510;BME280;48558;48.242;11.654;2022-11-04T21:01:53;95762.09;;;4.33;100.00
62510;BME280;48558;48.242;11.654;2022-11-04T21:06:05;95762.09;;;4.20;100.00
62510;BME280;48558;48.242;11.654;2022-11-04T21:10:18;95768.09;;;4.15;100.00
62510;BME280;48558;48.242;11.654;2022-11-04T21:14:30;95769.59;;;4.16;100.00
62510;BME280;48558;48.242;11.654;2022-11-04T21:18:45;95774.31;;;4.16;100.00
62510;BME280;48558;48.242;11.654;2022-11-04T21:22:58;95776.84;;;4.23;100.00
62510;BME280;48558;48.242;11.654;2022-11-04T21:27:10;95783.78;;;4.40;100.00
62510;BME280;48558;48.242;11.654;2022-11-04T21:31:23;95789.69;;;4.51;100.00
62510;BME280;48558;48.242;11.654;2022-11-04T21:35:38;95794.31;;;4.67;100.00
62510;BME280;48558;48.242;11.654;2022-11-04T21:39:50;95798.03;;;4.73;100.00
62510;BME280;48558;48.242;11.654;2022-11-04T21:44:05;95799.69;;;4.83;100.00
62510;BME280;48558;48.242;11.654;2022-11-04T21:48:19;95801.13;;;5.00;100.00
62510;BME280;48558;48.242;11.654;2022-11-04T21:52:31;95797.41;;;5.19;100.00
62510;BME280;48558;48.242;11.654;2022-11-04T21:56:44;95802.56;;;5.17;100.00
62510;BME280;48558;48.242;11.654;2022-11-04T22:00:57;95792.38;;;5.18;100.00
62510;BME280;48558;48.242;11.654;2022-11-04T22:05:14;95795.31;;;5.23;100.00
62510;BME280;48558;48.242;11.654;2022-11-04T22:09:26;95791.47;;;5.21;100.00
62510;BME280;48558;48.242;11.654;2022-11-04T22:13:39;95798.41;;;5.13;100.00
62510;BME280;48558;48.242;11.654;2022-11-04T22:17:51;95789.19;;;4.94;100.00
62510;BME280;48558;48.242;11.654;2022-11-04T22:22:04;95787.31;;;4.91;100.00
62510;BME280;48558;48.242;11.654;2022-11-04T22:26:24;95788.41;;;4.93;100.00
62510;BME280;48558;48.242;11.654;2022-11-04T22:30:37;95794.78;;;5.03;100.00
62510;BME280;48558;48.242;11.654;2022-11-04T22:34:49;95809.53;;;5.18;100.00
62510;BME280;48558;48.242;11.654;2022-11-04T22:39:02;95818.63;;;5.28;100.00
62510;BME280;48558;48.242;11.654;2022-11-04T22:43:14;95807.13;;;5.33;100.00
62510;BME280;48558;48.242;11.654;2022-11-04T22:47:27;95827.38;;;5.48;100.00
62510;BME280;48558;48.242;11.654;2022-11-04T22:51:39;95819.38;;;5.53;100.00
62510;BME280;48558;48.242;11.654;2022-11-04T22:55:52;95825.16;;;5.68;100.00
62510;BME280;48558;48.242;11.654;2022-11-04T23:00:06;95832.28;;;5.65;100.00
62510;BME280;48558;48.242;11.654;2022-11-04T23:04:18;95830.72;;;5.77;100.00
62510;BME280;48558;48.242;11.654;2022-11-04T23:08:32;95825.91;;;5.68;100.00
62510;BME280;48558;48.242;11.654;2022-11-04T23:12:45;95823.41;;;5.61;100.00
62510;BME280;48558;48.242;11.654;2022-11-04T23:17:18;95820.16;;;5.54;100.00
62510;BME280;48558;48.242;11.654;2022-11-04T23:21:49;95831.72;;;5.70;100.00
62510;BME280;48558;48.242;11.654;2022-11-04T23:26:21;95842.66;;;5.83;100.00
62510;BME280;48558;48.242;11.654;2022-11-04T23:30:43;95852.53;;;5.80;100.00
62510;BME280;48558;48.242;11.654;2022-11-04T23:34:56;95847.47;;;5.79;100.00
62510;BME280;48558;48.242;11.654;2022-11-04T23:39:27;95844.31;;;5.80;100.00
62510;BME280;48558;48.242;11.654;2022-11-04T23:43:39;95845.53;;;5.92;100.00
62510;BME280;48558;48.242;11.654;2022-11-04T23:47:54;95856.91;;;6.03;100.00
62510;BME280;48558;48.242;11.654;2022-11-04T23:52:25;95844.16;;;6.09;100.00
62510;BME280;48558;48.242;11.654;2022-11-04T23:56:56;95848.28;;;6.26;100.00
